createdAt,value
2022-09-28T00:00:51.124Z,36.80
2022-09-28T00:05:02.836Z,33.88
2022-09-28T00:09:05.088Z,33.67
2022-09-28T00:13:08.105Z,30.02
2022-09-28T00:17:09.756Z,33.90
2022-09-28T00:21:14.221Z,37.08
2022-09-28T00:25:16.955Z,44.85
2022-09-28T00:29:29.112Z,34.90
2022-09-28T00:33:31.065Z,30.08
2022-09-28T00:37:33.897Z,35.90
2022-09-28T00:41:36.123Z,29.80
2022-09-28T00:45:38.155Z,24.75
2022-09-28T00:50:02.812Z,24.50
2022-09-28T00:54:07.689Z,17.27
2022-09-28T00:58:13.085Z,15.60
2022-09-28T01:02:15.372Z,15.43
2022-09-28T01:06:28.143Z,11.18
2022-09-28T01:10:31.512Z,11.25
2022-09-28T01:14:33.806Z,12.95
2022-09-28T01:18:47.517Z,13.90
2022-09-28T01:23:13.111Z,14.43
2022-09-28T01:27:32.509Z,10.80
2022-09-28T01:31:37.178Z,12.03
2022-09-28T01:35:51.846Z,12.88
2022-09-28T01:39:57.403Z,14.13
2022-09-28T01:44:02.967Z,14.60
2022-09-28T01:48:07.903Z,11.27
2022-09-28T01:52:14.734Z,10.45
2022-09-28T01:56:36.215Z,12.00
2022-09-28T02:00:42.502Z,8.98
2022-09-28T02:04:55.498Z,7.47
2022-09-28T02:09:05.412Z,7.70
2022-09-28T02:13:32.855Z,8.52
2022-09-28T02:17:35.276Z,8.60
2022-09-28T02:21:55.480Z,8.10
2022-09-28T02:26:08.707Z,7.45
2022-09-28T02:30:11.591Z,7.45
2022-09-28T02:34:13.460Z,10.52
2022-09-28T02:38:15.568Z,7.55
2022-09-28T02:42:43.392Z,6.18
2022-09-28T02:47:11.159Z,4.32
2022-09-28T02:51:27.538Z,5.15
2022-09-28T02:55:35.318Z,4.68
2022-09-28T03:00:08.948Z,3.77
2022-09-28T03:04:29.068Z,4.40
2022-09-28T03:08:38.485Z,4.53
2022-09-28T03:12:46.437Z,5.68
2022-09-28T03:16:50.358Z,5.30
2022-09-28T03:20:52.406Z,5.18
2022-09-28T03:24:54.187Z,5.55
2022-09-28T03:28:56.099Z,4.82
2022-09-28T03:33:00.477Z,4.20
2022-09-28T03:37:04.426Z,4.88
2022-09-28T03:41:07.583Z,4.65
2022-09-28T03:45:11.635Z,5.30
2022-09-28T03:49:13.757Z,5.68
2022-09-28T03:53:15.696Z,4.95
2022-09-28T03:57:17.665Z,5.70
2022-09-28T04:01:20.258Z,6.43
2022-09-28T04:05:22.766Z,6.40
2022-09-28T04:09:24.456Z,7.20
2022-09-28T04:13:27.362Z,7.18
2022-09-28T04:17:29.261Z,7.50
2022-09-28T04:21:31.441Z,11.10
2022-09-28T04:25:39.668Z,10.38
2022-09-28T04:29:41.740Z,11.57
2022-09-28T04:33:43.778Z,21.83
2022-09-28T04:37:45.799Z,23.33
2022-09-28T04:41:48.780Z,27.02
2022-09-28T04:45:51.271Z,29.60
2022-09-28T04:49:53.227Z,30.08
2022-09-28T04:54:01.261Z,31.00
2022-09-28T04:58:04.378Z,32.03
2022-09-28T05:02:07.151Z,30.40
2022-09-28T05:06:30.496Z,31.52
2022-09-28T05:10:40.493Z,31.90
2022-09-28T05:14:42.367Z,30.25
2022-09-28T05:18:44.444Z,32.25
2022-09-28T05:22:46.132Z,32.58
2022-09-28T05:26:48.084Z,32.20
2022-09-28T05:30:50.054Z,30.33
2022-09-28T05:35:06.308Z,29.35
2022-09-28T05:39:15.796Z,28.92
2022-09-28T05:43:18.063Z,29.63
2022-09-28T05:47:19.723Z,29.15
2022-09-28T05:51:21.644Z,25.83
2022-09-28T05:55:23.495Z,23.92
2022-09-28T05:59:25.381Z,22.50
2022-09-28T06:03:27.450Z,22.23
2022-09-28T06:07:29.468Z,24.42
2022-09-28T06:11:31.944Z,23.00
2022-09-28T06:15:39.090Z,25.42
2022-09-28T06:19:40.858Z,24.08
2022-09-28T06:23:57.860Z,25.25
2022-09-28T06:28:07.616Z,20.35
2022-09-28T06:32:09.618Z,21.90
2022-09-28T06:36:13.368Z,21.23
2022-09-28T06:40:15.711Z,21.90
2022-09-28T06:44:17.732Z,24.75
2022-09-28T06:48:58.614Z,22.30
2022-09-28T06:53:19.208Z,23.55
2022-09-28T06:57:27.120Z,24.67
2022-09-28T07:01:28.889Z,22.67
2022-09-28T07:05:48.604Z,25.83
2022-09-28T07:10:13.194Z,26.17
2022-09-28T07:14:46.860Z,52.15
2022-09-28T07:18:50.134Z,19.85
2022-09-28T07:22:59.274Z,17.98
2022-09-28T07:27:12.484Z,20.70
2022-09-28T07:31:29.739Z,20.48
2022-09-28T07:35:52.231Z,17.98
2022-09-28T07:40:14.108Z,19.83
2022-09-28T07:44:17.491Z,19.27
2022-09-28T07:48:21.573Z,19.33
2022-09-28T07:52:34.683Z,26.25
2022-09-28T07:56:50.022Z,17.67
2022-09-28T08:01:07.313Z,15.77
2022-09-28T08:05:10.080Z,14.63
2022-09-28T08:09:11.863Z,14.00
2022-09-28T08:13:34.070Z,12.43
2022-09-28T08:17:50.655Z,12.88
2022-09-28T08:21:55.277Z,11.93
2022-09-28T08:25:57.118Z,12.88
2022-09-28T08:29:59.028Z,13.32
2022-09-28T08:34:29.677Z,13.48
2022-09-28T08:38:43.443Z,14.55
2022-09-28T08:44:00.889Z,14.52
2022-09-28T08:48:52.216Z,12.05
2022-09-28T08:53:47.943Z,11.02
2022-09-28T08:58:05.609Z,11.95
2022-09-28T09:02:33.556Z,11.02
2022-09-28T09:07:04.968Z,8.30
2022-09-28T09:11:43.152Z,7.65
2022-09-28T09:15:55.784Z,6.75
2022-09-28T09:20:28.011Z,7.30
2022-09-28T09:24:51.895Z,7.70
2022-09-28T09:29:14.131Z,7.90
2022-09-28T09:33:38.471Z,6.45
2022-09-28T09:38:28.663Z,6.65
2022-09-28T09:43:27.935Z,7.45
2022-09-28T09:48:11.137Z,7.70
2022-09-28T09:52:26.963Z,7.55
2022-09-28T09:56:45.166Z,6.60
2022-09-28T10:01:19.763Z,4.82
2022-09-28T10:05:54.551Z,5.07
2022-09-28T10:10:00.009Z,4.80
2022-09-28T10:14:25.337Z,4.35
2022-09-28T10:18:35.471Z,4.45
2022-09-28T10:22:58.346Z,4.72
2022-09-28T10:27:06.515Z,3.17
2022-09-28T10:31:37.791Z,4.10
2022-09-28T10:35:43.446Z,3.55
2022-09-28T10:39:53.825Z,3.42
2022-09-28T10:44:08.816Z,3.28
2022-09-28T10:48:45.918Z,3.05
2022-09-28T10:52:47.686Z,3.58
2022-09-28T10:57:36.852Z,2.95
2022-09-28T11:01:43.804Z,2.83
2022-09-28T11:06:14.009Z,3.60
2022-09-28T11:14:42.121Z,2.17
2022-09-28T11:18:49.850Z,2.42
2022-09-28T11:22:53.704Z,2.58
2022-09-28T11:27:00.206Z,2.38
2022-09-28T11:31:08.006Z,2.78
2022-09-28T11:35:50.579Z,2.50
2022-09-28T11:40:26.280Z,2.42
2022-09-28T11:44:41.470Z,2.00
2022-09-28T11:48:55.068Z,1.60
2022-09-28T11:53:35.501Z,2.50
2022-09-28T11:57:42.178Z,1.98
2022-09-28T12:01:48.956Z,2.15
2022-09-28T12:06:16.197Z,2.45
2022-09-28T12:10:29.298Z,2.20
2022-09-28T12:14:35.783Z,2.33
2022-09-28T12:18:46.666Z,2.20
2022-09-28T12:23:01.898Z,2.05
2022-09-28T12:27:06.080Z,1.95
2022-09-28T12:31:15.198Z,1.70
2022-09-28T12:39:57.471Z,1.48
2022-09-28T12:44:27.639Z,1.50
2022-09-28T12:52:45.252Z,2.03
2022-09-28T12:56:58.087Z,1.83
2022-09-28T13:01:28.499Z,1.23
2022-09-28T13:05:34.474Z,1.50
2022-09-28T13:10:01.731Z,1.55
2022-09-28T13:14:32.880Z,1.35
2022-09-28T13:18:53.287Z,1.98
2022-09-28T13:23:08.208Z,1.45
2022-09-28T13:27:15.459Z,1.20
2022-09-28T13:31:33.171Z,1.55
2022-09-28T13:35:43.900Z,1.80
2022-09-28T13:39:45.712Z,2.25
2022-09-28T13:43:50.388Z,1.85
2022-09-28T13:48:02.993Z,1.85
2022-09-28T13:52:34.555Z,1.63
2022-09-28T13:56:57.910Z,1.60
2022-09-28T14:01:11.466Z,1.50
2022-09-28T14:05:23.017Z,1.40
2022-09-28T14:09:45.529Z,1.50
2022-09-28T14:14:05.617Z,2.00
2022-09-28T14:18:25.817Z,2.05
2022-09-28T14:22:55.736Z,2.10
2022-09-28T14:27:15.994Z,1.85
2022-09-28T14:31:30.012Z,1.77
2022-09-28T14:35:43.302Z,1.75
2022-09-28T14:40:05.524Z,2.25
2022-09-28T14:44:13.084Z,2.60
2022-09-28T14:48:20.488Z,2.30
2022-09-28T14:52:39.232Z,1.80
2022-09-28T14:56:51.907Z,1.90
2022-09-28T15:01:07.472Z,1.83
2022-09-28T15:05:19.762Z,2.10
2022-09-28T15:09:28.561Z,2.20
2022-09-28T15:13:30.582Z,2.05
2022-09-28T15:17:39.408Z,2.63
2022-09-28T15:21:43.393Z,3.30
2022-09-28T15:25:52.502Z,2.28
2022-09-28T15:29:58.358Z,2.33
2022-09-28T15:34:18.938Z,2.95
2022-09-28T15:38:21.157Z,4.78
2022-09-28T15:42:23.201Z,5.20
2022-09-28T15:46:28.648Z,4.25
2022-09-28T15:50:31.732Z,4.05
2022-09-28T15:54:44.354Z,4.82
2022-09-28T15:59:08.729Z,4.13
2022-09-28T16:03:10.621Z,3.70
2022-09-28T16:07:12.223Z,4.03
2022-09-28T16:11:26.455Z,5.05
2022-09-28T16:15:36.869Z,4.72
2022-09-28T16:19:39.633Z,4.38
2022-09-28T16:23:41.878Z,4.53
2022-09-28T16:27:44.942Z,5.68
2022-09-28T16:31:52.608Z,6.20
2022-09-28T16:35:54.683Z,10.47
2022-09-28T16:39:56.254Z,9.52
2022-09-28T16:44:01.016Z,10.00
2022-09-28T16:48:04.143Z,11.98
2022-09-28T16:52:12.352Z,7.68
2022-09-28T16:56:14.158Z,7.40
2022-09-28T17:00:22.901Z,7.40
2022-09-28T17:04:25.968Z,6.80
2022-09-28T17:08:28.038Z,7.35
2022-09-28T17:12:29.744Z,7.25
2022-09-28T17:17:02.302Z,10.77
2022-09-28T17:20:56.721Z,11.07
2022-09-28T17:24:58.759Z,10.88
2022-09-28T17:29:01.619Z,10.70
2022-09-28T17:33:03.669Z,14.77
2022-09-28T17:37:05.441Z,15.18
2022-09-28T17:41:10.775Z,14.73
2022-09-28T17:45:12.610Z,13.48
2022-09-28T17:49:15.168Z,13.98
2022-09-28T17:53:16.988Z,11.98
2022-09-28T17:57:18.946Z,14.63
2022-09-28T18:01:20.715Z,66.28
2022-09-28T18:05:24.874Z,65.65
2022-09-28T18:09:26.662Z,41.35
2022-09-28T18:13:28.785Z,15.55
2022-09-28T18:17:30.558Z,27.23
2022-09-28T18:21:32.923Z,46.72
2022-09-28T18:25:34.813Z,33.38
2022-09-28T18:29:36.912Z,22.60
2022-09-28T18:33:39.305Z,24.88
2022-09-28T18:37:41.611Z,34.47
2022-09-28T18:41:43.311Z,26.40
2022-09-28T18:45:45.455Z,24.60
2022-09-28T18:49:47.149Z,21.38
2022-09-28T18:53:49.117Z,26.35
2022-09-28T18:57:51.432Z,61.30
2022-09-28T19:01:53.529Z,34.83
2022-09-28T19:05:56.255Z,25.77
2022-09-28T19:09:58.111Z,24.73
2022-09-28T19:13:59.786Z,21.02
2022-09-28T19:18:01.979Z,38.92
2022-09-28T19:22:04.436Z,45.55
2022-09-28T19:26:13.659Z,30.08
2022-09-28T19:30:15.386Z,24.17
2022-09-28T19:34:17.579Z,23.85
2022-09-28T19:38:19.537Z,17.67
2022-09-28T19:42:21.545Z,12.43
2022-09-28T19:46:23.175Z,34.38
2022-09-28T19:50:25.207Z,50.88
2022-09-28T19:54:33.095Z,44.55
2022-09-28T19:58:37.569Z,27.05
2022-09-28T20:02:39.216Z,16.48
2022-09-28T20:06:41.471Z,18.08
2022-09-28T20:10:54.656Z,17.48
2022-09-28T20:14:56.852Z,20.58
2022-09-28T20:19:03.024Z,17.35
2022-09-28T20:23:05.344Z,21.52
2022-09-28T20:27:07.133Z,19.33
2022-09-28T20:31:23.664Z,23.88
2022-09-28T20:35:50.772Z,28.50
2022-09-28T20:39:53.346Z,25.08
2022-09-28T20:43:59.584Z,24.80
2022-09-28T20:48:06.390Z,21.50
2022-09-28T20:52:08.601Z,22.27
2022-09-28T20:56:31.594Z,24.83
2022-09-28T21:00:33.322Z,21.90
2022-09-28T21:04:35.736Z,28.65
2022-09-28T21:08:37.340Z,22.80
2022-09-28T21:12:39.878Z,27.20
2022-09-28T21:16:41.706Z,24.95
2022-09-28T21:20:47.923Z,30.33
2022-09-28T21:24:49.504Z,27.35
2022-09-28T21:28:56.132Z,27.75
2022-09-28T21:32:58.122Z,24.83
2022-09-28T21:36:59.932Z,19.98
2022-09-28T21:41:01.699Z,25.42
2022-09-28T21:45:04.243Z,22.75
2022-09-28T21:49:07.984Z,27.05
2022-09-28T21:53:10.003Z,20.80
2022-09-28T21:57:12.002Z,20.48
2022-09-28T22:01:23.472Z,20.45
2022-09-28T22:05:25.184Z,22.58
2022-09-28T22:09:27.243Z,21.48
2022-09-28T22:13:29.695Z,21.42
2022-09-28T22:17:32.089Z,19.85
2022-09-28T22:21:34.907Z,19.75
2022-09-28T22:25:42.974Z,17.60
2022-09-28T22:29:45.018Z,21.20
2022-09-28T22:33:47.052Z,17.83
2022-09-28T22:37:48.950Z,19.38
2022-09-28T22:41:52.637Z,20.13
2022-09-28T22:46:12.102Z,19.15
2022-09-28T22:50:14.137Z,33.20
2022-09-28T22:54:16.370Z,38.35
2022-09-28T22:58:18.408Z,33.97
2022-09-28T23:02:19.967Z,39.70
2022-09-28T23:06:24.909Z,37.90
2022-09-28T23:10:26.670Z,37.17
2022-09-28T23:14:28.485Z,37.83
2022-09-28T23:18:32.747Z,40.47
2022-09-28T23:22:34.693Z,49.13
2022-09-28T23:26:36.972Z,41.35
2022-09-28T23:30:39.072Z,38.30
2022-09-28T23:34:40.720Z,35.22
2022-09-28T23:38:43.151Z,31.30
2022-09-28T23:42:44.889Z,30.08
2022-09-28T23:46:46.768Z,27.42
2022-09-28T23:50:48.504Z,31.85
2022-09-28T23:54:50.580Z,27.65
2022-09-28T23:58:52.180Z,29.42
